Time;durP1;ratioP1;P1;durP2;ratioP2;P2;SDS_P1;SDS_P2;PMS_P1;PMS_P2;Temp;Humidity;BMP_temperature;BMP_pressure;BME280_temperature;BME280_humidity;BME280_pressure;Samples;Min_cycle;Max_cycle;Signal;HPM_P1;HPM_P2
2021/07/15 00:01:16;;;;;;;5.77;5.27;;;20.50;99.90;;;;;;5081172;28;20498;-79
2021/07/15 00:03:42;;;;;;;5.70;5.17;;;20.60;99.90;;;;;;5079918;28;20472;-76
2021/07/15 00:06:10;;;;;;;6.33;5.73;;;20.10;99.90;;;;;;5079190;28;20456;-77
2021/07/15 00:08:38;;;;;;;6.33;5.83;;;20.40;99.90;;;;;;5077792;28;20504;-76
2021/07/15 00:11:07;;;;;;;5.63;5.10;;;20.40;99.90;;;;;;5078312;28;20446;-77
2021/07/15 00:13:34;;;;;;;6.40;5.80;;;20.30;99.90;;;;;;5078528;28;20533;-77
2021/07/15 00:16:04;;;;;;;6.27;5.77;;;20.30;99.90;;;;;;5078358;28;20448;-77
2021/07/15 00:18:34;;;;;;;6.43;5.83;;;20.40;99.90;;;;;;5080732;28;20445;-77
2021/07/15 00:21:04;;;;;;;6.50;6.00;;;20.20;99.90;;;;;;5078609;28;20510;-78
2021/07/15 00:23:31;;;;;;;6.40;5.90;;;20.40;99.90;;;;;;5079853;28;21046;-77
2021/07/15 00:25:59;;;;;;;6.30;5.70;;;20.40;99.90;;;;;;5079303;28;20476;-77
2021/07/15 00:28:28;;;;;;;6.57;6.00;;;20.30;99.90;;;;;;5078027;28;20441;-77
2021/07/15 00:30:54;;;;;;;7.30;6.60;;;20.30;99.90;;;;;;5076759;28;20448;-77
2021/07/15 00:33:21;;;;;;;6.40;5.90;;;20.20;99.90;;;;;;5076911;28;20986;-77
2021/07/15 00:35:48;;;;;;;10.07;5.70;;;20.10;99.90;;;;;;5076702;28;20865;-78
2021/07/15 00:38:14;;;;;;;7.50;6.80;;;20.70;99.90;;;;;;5076654;28;20457;-77
2021/07/15 00:40:41;;;;;;;6.67;5.97;;;20.10;99.90;;;;;;5075845;28;20552;-78
2021/07/15 00:43:09;;;;;;;7.80;7.10;;;20.10;99.90;;;;;;5075674;28;20461;-77
2021/07/15 00:45:36;;;;;;;6.77;6.27;;;20.10;99.90;;;;;;5074691;28;20444;-77
2021/07/15 00:48:03;;;;;;;12.90;6.40;;;20.00;99.90;;;;;;5075847;28;20488;-77
2021/07/15 00:50:30;;;;;;;7.43;5.83;;;20.10;99.90;;;;;;5075858;28;20475;-77
2021/07/15 00:52:57;;;;;;;7.20;6.60;;;20.00;99.90;;;;;;5075425;28;20475;-77
2021/07/15 00:55:27;;;;;;;8.23;6.53;;;20.10;99.90;;;;;;5075578;28;20444;-77
2021/07/15 00:57:54;;;;;;;6.20;5.70;;;19.90;99.90;;;;;;5075457;28;20429;-77
2021/07/15 01:00:23;;;;;;;6.87;6.27;;;19.90;99.90;;;;;;5075343;28;20477;-78
2021/07/15 01:02:50;;;;;;;8.27;7.07;;;19.90;99.90;;;;;;5077996;28;20515;-77
2021/07/15 01:05:21;;;;;;;9.87;7.83;;;19.80;99.90;;;;;;5080730;28;20475;-77
2021/07/15 01:07:48;;;;;;;8.80;6.40;;;19.90;99.90;;;;;;5076150;28;20445;-77
2021/07/15 01:10:17;;;;;;;8.00;7.20;;;19.90;99.90;;;;;;5075320;28;20441;-77
2021/07/15 01:12:53;;;;;;;6.43;5.93;;;19.80;99.90;;;;;;5074945;28;20486;-77
2021/07/15 01:15:23;;;;;;;6.93;6.43;;;19.90;99.90;;;;;;5075156;28;20460;-76
2021/07/15 01:18:00;;;;;;;6.27;5.83;;;19.80;99.90;;;;;;5075300;28;20544;-77
2021/07/15 01:21:19;;;;;;;7.43;6.83;;;19.70;99.90;;;;;;5074850;28;20507;-77
2021/07/15 01:24:11;;;;;;;7.20;6.50;;;19.80;99.90;;;;;;5013441;28;20499;-77
2021/07/15 01:26:56;;;;;;;6.63;6.03;;;19.70;99.90;;;;;;5013214;28;20493;-77
2021/07/15 01:29:27;;;;;;;7.00;6.30;;;19.40;99.90;;;;;;5058337;28;20483;-76
2021/07/15 01:32:02;;;;;;;7.60;7.00;;;19.30;99.90;;;;;;5074490;28;20522;-77
2021/07/15 01:34:29;;;;;;;7.10;6.50;;;19.30;99.90;;;;;;5074639;28;20532;-77
2021/07/15 01:36:58;;;;;;;7.33;6.63;;;19.40;99.90;;;;;;5074545;28;20448;-77
2021/07/15 01:39:29;;;;;;;7.27;6.67;;;19.40;99.90;;;;;;5074583;28;20480;-77
2021/07/15 01:42:00;;;;;;;8.80;8.10;;;19.40;99.90;;;;;;5074508;28;20998;-77
2021/07/15 01:44:30;;;;;;;7.50;6.80;;;19.40;99.90;;;;;;5074359;28;20464;-77
2021/07/15 01:46:59;;;;;;;8.47;7.57;;;19.40;99.90;;;;;;5074309;28;20500;-77
2021/07/15 01:49:27;;;;;;;7.97;7.27;;;19.40;99.90;;;;;;5074422;28;20445;-77
2021/07/15 01:51:55;;;;;;;7.17;6.57;;;19.40;99.90;;;;;;5074253;28;20522;-77
2021/07/15 01:54:22;;;;;;;6.40;5.90;;;19.40;99.90;;;;;;5073925;28;20559;-77
2021/07/15 01:56:50;;;;;;;8.57;6.53;;;19.40;99.90;;;;;;5074069;28;20462;-77
2021/07/15 01:59:19;;;;;;;6.63;6.03;;;19.50;99.90;;;;;;5075863;28;20459;-76
2021/07/15 02:01:47;;;;;;;8.27;7.47;;;19.40;99.90;;;;;;5075911;28;20476;-77
2021/07/15 02:04:15;;;;;;;6.43;5.90;;;19.20;99.90;;;;;;5074333;28;20504;-78
2021/07/15 02:06:44;;;;;;;8.07;6.97;;;19.30;99.90;;;;;;5076676;28;20451;-78
2021/07/15 02:09:12;;;;;;;7.30;6.60;;;19.20;99.90;;;;;;5076561;28;20475;-77
2021/07/15 02:11:40;;;;;;;6.80;6.20;;;19.10;99.90;;;;;;5076288;28;20468;-77
2021/07/15 02:14:10;;;;;;;7.13;5.90;;;19.10;99.90;;;;;;5073952;28;20498;-78
2021/07/15 02:16:39;;;;;;;6.97;5.70;;;19.00;99.90;;;;;;5073901;28;20447;-76
2021/07/15 02:19:07;;;;;;;6.70;6.03;;;19.00;99.90;;;;;;5074170;28;20521;-77
2021/07/15 02:21:37;;;;;;;6.27;5.77;;;19.10;99.90;;;;;;5075692;28;20515;-77
2021/07/15 02:24:07;;;;;;;6.17;5.70;;;19.10;99.90;;;;;;5077428;28;20524;-77
2021/07/15 02:26:35;;;;;;;5.93;5.37;;;19.20;99.90;;;;;;5073502;28;20521;-77
2021/07/15 02:29:03;;;;;;;5.67;5.17;;;19.20;99.90;;;;;;5073531;28;20504;-77
2021/07/15 02:31:36;;;;;;;4.90;4.50;;;19.20;99.90;;;;;;5074442;28;20494;-77
2021/07/15 02:34:07;;;;;;;4.10;3.80;;;19.20;99.90;;;;;;5074171;28;20479;-77
2021/07/15 02:36:37;;;;;;;4.43;4.03;;;19.10;99.90;;;;;;5073492;28;20515;-77
2021/07/15 02:39:07;;;;;;;9.47;7.80;;;19.20;99.90;;;;;;5073602;28;20436;-77
2021/07/15 02:41:34;;;;;;;3.90;3.60;;;19.30;99.90;;;;;;5073622;28;20465;-77
2021/07/15 02:44:01;;;;;;;12.87;9.70;;;19.50;99.90;;;;;;5073521;28;20559;-77
2021/07/15 02:46:27;;;;;;;4.63;4.23;;;19.50;99.90;;;;;;5073413;28;20984;-77
2021/07/15 02:48:54;;;;;;;6.10;5.57;;;19.50;99.90;;;;;;5075549;28;20516;-78
2021/07/15 02:51:20;;;;;;;4.83;3.97;;;19.50;99.90;;;;;;5080904;28;20441;-77
2021/07/15 02:53:48;;;;;;;4.23;3.83;;;19.60;99.90;;;;;;5083085;28;20466;-77
2021/07/15 02:56:23;;;;;;;4.33;3.97;;;19.50;99.90;;;;;;5084327;28;20478;-77
2021/07/15 02:58:59;;;;;;;7.23;6.60;;;19.40;99.90;;;;;;5085286;28;20443;-77
2021/07/15 03:01:29;;;;;;;3.90;3.60;;;19.40;99.90;;;;;;5080279;28;20468;-77
2021/07/15 03:04:07;;;;;;;5.20;3.93;;;19.40;99.90;;;;;;5075549;28;20508;-77
2021/07/15 03:06:37;;;;;;;4.47;4.17;;;19.30;99.90;;;;;;5075733;28;20466;-77
2021/07/15 03:09:11;;;;;;;6.10;5.60;;;19.30;99.90;;;;;;5075055;28;20425;-77
2021/07/15 03:11:42;;;;;;;5.10;4.70;;;19.20;99.90;;;;;;5077286;28;20437;-78
2021/07/15 03:14:09;;;;;;;5.03;4.63;;;19.30;99.90;;;;;;5080521;28;20477;-77
2021/07/15 03:16:39;;;;;;;4.30;4.00;;;19.30;99.90;;;;;;5080908;28;20448;-78
2021/07/15 03:19:08;;;;;;;5.80;4.83;;;19.20;99.90;;;;;;5082820;28;20528;-77
2021/07/15 03:21:40;;;;;;;4.40;4.10;;;19.20;99.90;;;;;;5082749;28;20504;-78
2021/07/15 03:24:10;;;;;;;4.37;4.03;;;19.10;99.90;;;;;;5080474;28;20478;-77
2021/07/15 03:26:38;;;;;;;4.83;4.43;;;19.10;99.90;;;;;;5076794;28;20447;-77
2021/07/15 03:29:06;;;;;;;5.40;4.30;;;19.10;99.90;;;;;;5075724;28;20452;-77
2021/07/15 03:31:34;;;;;;;24.97;21.20;;;19.10;99.90;;;;;;5074679;28;20455;-77
2021/07/15 03:34:01;;;;;;;6.53;5.70;;;19.00;99.90;;;;;;5074979;28;20530;-77
2021/07/15 03:36:28;;;;;;;5.83;5.13;;;19.00;99.90;;;;;;5075174;28;20447;-77
2021/07/15 03:38:55;;;;;;;21.17;16.33;;;19.00;99.90;;;;;;5074221;28;20941;-76
2021/07/15 03:41:24;;;;;;;4.93;4.53;;;19.00;99.90;;;;;;5073068;28;20477;-77
2021/07/15 03:43:51;;;;;;;4.60;4.30;;;19.30;99.90;;;;;;5073048;28;20492;-77
2021/07/15 03:46:20;;;;;;;5.83;5.33;;;18.90;99.90;;;;;;5073253;28;20446;-77
2021/07/15 03:48:47;;;;;;;5.70;5.10;;;18.90;99.90;;;;;;5073094;28;20899;-77
2021/07/15 03:51:14;;;;;;;5.60;5.20;;;18.90;99.90;;;;;;5073149;28;20462;-77
2021/07/15 03:53:45;;;;;;;6.47;5.80;;;18.80;99.90;;;;;;5073158;28;21105;-77
2021/07/15 03:56:14;;;;;;;5.90;5.30;;;18.90;99.90;;;;;;5073374;28;20482;-77
2021/07/15 03:58:44;;;;;;;6.67;5.97;;;18.90;99.90;;;;;;5073764;28;20477;-78
2021/07/15 04:01:12;;;;;;;6.10;5.60;;;18.80;99.90;;;;;;5078845;28;20952;-78
2021/07/15 04:03:40;;;;;;;6.80;6.10;;;18.70;99.90;;;;;;5093240;22;20563;-77
2021/07/15 04:06:09;;;;;;;6.17;5.77;;;18.80;99.90;;;;;;5052331;28;20445;-77
2021/07/15 04:08:38;;;;;;;6.73;6.03;;;18.80;99.90;;;;;;5052459;28;20465;-77
2021/07/15 04:11:07;;;;;;;5.83;5.30;;;18.90;99.90;;;;;;5052613;28;20454;-77
2021/07/15 04:13:34;;;;;;;6.03;5.37;;;18.70;99.90;;;;;;5053148;28;20515;-77
2021/07/15 04:16:30;;;;;;;6.13;5.57;;;18.90;99.90;;;;;;5053228;28;20487;-77
2021/07/15 04:19:00;;;;;;;5.10;4.70;;;19.00;99.90;;;;;;5057610;28;20427;-77
2021/07/15 04:21:27;;;;;;;6.17;5.10;;;19.10;99.90;;;;;;5058814;28;20507;-79
2021/07/15 04:23:56;;;;;;;10.30;5.50;;;19.10;99.90;;;;;;5062088;28;20472;-78
2021/07/15 04:26:23;;;;;;;6.37;5.70;;;19.10;99.90;;;;;;5056973;28;20479;-76
2021/07/15 04:28:51;;;;;;;6.63;5.50;;;19.30;99.90;;;;;;5056109;28;20456;-77
2021/07/15 04:31:26;;;;;;;5.77;5.17;;;19.20;99.90;;;;;;5058934;28;20499;-77
2021/07/15 04:33:54;;;;;;;5.60;5.10;;;19.00;99.90;;;;;;5055997;28;20598;-77
2021/07/15 04:36:20;;;;;;;7.03;5.60;;;18.90;99.90;;;;;;5056401;28;20479;-77
2021/07/15 04:38:47;;;;;;;6.27;5.70;;;19.00;99.90;;;;;;5056949;28;20508;-77
2021/07/15 04:41:14;;;;;;;7.10;6.40;;;19.00;99.90;;;;;;5056677;28;20590;-77
2021/07/15 04:43:41;;;;;;;6.00;5.47;;;19.10;99.90;;;;;;5056805;28;20508;-77
2021/07/15 04:46:10;;;;;;;6.63;5.73;;;19.20;99.90;;;;;;5058393;28;20448;-77
2021/07/15 04:48:38;;;;;;;6.73;6.17;;;19.20;99.90;;;;;;5060432;28;20453;-76
2021/07/15 04:51:06;;;;;;;5.40;4.90;;;19.20;99.90;;;;;;5059587;28;20453;-77
2021/07/15 04:53:33;;;;;;;6.27;5.17;;;19.40;99.90;;;;;;5058672;28;20481;-77
2021/07/15 04:56:00;;;;;;;9.40;6.20;;;19.40;99.90;;;;;;5056843;28;20531;-77
2021/07/15 04:58:27;;;;;;;10.77;6.30;;;19.40;99.90;;;;;;5057868;28;20470;-78
2021/07/15 05:00:54;;;;;;;8.80;5.63;;;19.20;99.90;;;;;;5057672;28;20456;-77
2021/07/15 05:03:30;;;;;;;5.90;5.40;;;19.40;99.90;;;;;;5056532;28;20478;-78
2021/07/15 05:05:58;;;;;;;5.37;4.97;;;19.40;99.90;;;;;;5057498;28;20446;-77
2021/07/15 05:08:25;;;;;;;7.30;5.57;;;19.40;99.90;;;;;;5058081;28;20954;-78
2021/07/15 05:10:51;;;;;;;5.20;4.70;;;19.30;99.90;;;;;;5059340;28;20499;-78
2021/07/15 05:13:18;;;;;;;5.63;4.43;;;19.60;99.90;;;;;;5056625;28;20523;-77
2021/07/15 05:15:46;;;;;;;7.90;4.87;;;19.50;99.90;;;;;;5057518;28;20477;-77
2021/07/15 05:18:12;;;;;;;7.60;5.63;;;19.50;99.90;;;;;;5056622;28;20442;-77
2021/07/15 05:20:39;;;;;;;5.67;4.67;;;19.50;99.90;;;;;;5056299;28;20986;-79
2021/07/15 05:23:07;;;;;;;5.00;4.50;;;19.70;99.90;;;;;;5055883;28;20520;-78
2021/07/15 05:25:34;;;;;;;7.83;4.60;;;19.50;99.90;;;;;;5056836;28;20484;-78
2021/07/15 05:28:00;;;;;;;5.97;5.37;;;19.50;99.90;;;;;;5056618;28;20504;-77
2021/07/15 05:30:27;;;;;;;4.90;4.40;;;19.50;99.90;;;;;;5055844;28;20469;-78
2021/07/15 05:32:53;;;;;;;5.23;4.73;;;19.60;99.90;;;;;;5056589;28;20473;-76
2021/07/15 05:35:20;;;;;;;5.30;4.47;;;19.60;99.90;;;;;;5061297;28;20496;-77
2021/07/15 05:37:47;;;;;;;5.33;4.83;;;19.70;99.90;;;;;;5064414;28;20446;-78
2021/07/15 05:40:16;;;;;;;4.67;4.17;;;19.70;99.90;;;;;;5064389;28;20445;-77
2021/07/15 05:42:42;;;;;;;6.37;4.90;;;19.70;99.90;;;;;;5064386;28;20489;-77
2021/07/15 05:45:09;;;;;;;4.60;4.20;;;19.70;99.90;;;;;;5059670;28;20465;-76
2021/07/15 05:47:36;;;;;;;4.50;4.10;;;19.70;99.90;;;;;;5057212;28;20503;-78
2021/07/15 05:50:04;;;;;;;6.43;5.10;;;19.60;99.90;;;;;;5063366;28;20501;-77
2021/07/15 05:52:31;;;;;;;4.60;3.80;;;19.80;99.90;;;;;;5058479;28;20867;-77
2021/07/15 05:54:58;;;;;;;4.20;3.90;;;19.90;99.90;;;;;;5054161;28;20512;-76
2021/07/15 05:57:27;;;;;;;6.30;3.67;;;20.00;99.90;;;;;;5054845;28;20458;-76
2021/07/15 05:59:54;;;;;;;4.43;4.10;;;20.00;99.90;;;;;;5057038;28;20450;-77
2021/07/15 06:02:20;;;;;;;4.70;3.70;;;19.90;99.90;;;;;;5062034;28;20507;-78
2021/07/15 06:04:47;;;;;;;11.47;4.07;;;20.10;99.90;;;;;;5062690;28;20509;-77
2021/07/15 06:07:13;;;;;;;3.40;3.20;;;20.10;99.90;;;;;;5063456;28;20472;-77
2021/07/15 06:09:40;;;;;;;3.00;2.77;;;20.20;99.90;;;;;;5062414;28;20445;-77
2021/07/15 06:12:07;;;;;;;3.70;3.40;;;20.20;99.90;;;;;;5062366;28;20790;-77
2021/07/15 06:14:35;;;;;;;4.90;3.40;;;20.30;99.90;;;;;;5059489;28;20977;-77
2021/07/15 06:17:02;;;;;;;3.90;3.23;;;20.10;99.90;;;;;;5058820;28;20491;-77
2021/07/15 06:19:28;;;;;;;4.23;3.00;;;20.40;99.90;;;;;;5057141;28;20473;-78
2021/07/15 06:21:55;;;;;;;4.20;2.80;;;20.20;99.90;;;;;;5056578;28;20531;-78
2021/07/15 06:24:21;;;;;;;3.10;2.53;;;20.10;99.90;;;;;;5057014;28;20471;-78
2021/07/15 06:26:48;;;;;;;3.30;3.00;;;20.20;99.90;;;;;;5056152;28;20446;-78
2021/07/15 06:29:15;;;;;;;5.43;2.57;;;20.20;99.90;;;;;;5055390;28;20457;-78
2021/07/15 06:31:43;;;;;;;6.83;3.30;;;20.10;99.90;;;;;;5055489;28;20446;-78
2021/07/15 06:34:10;;;;;;;2.83;2.63;;;20.20;99.90;;;;;;5057541;28;20497;-77
2021/07/15 06:36:37;;;;;;;4.03;3.60;;;20.30;99.90;;;;;;5063438;28;20444;-77
2021/07/15 06:39:04;;;;;;;2.87;2.67;;;20.30;99.90;;;;;;5063837;28;20445;-77
2021/07/15 06:41:31;;;;;;;2.80;2.60;;;20.30;99.90;;;;;;5060271;28;20450;-78
2021/07/15 06:43:57;;;;;;;2.50;2.30;;;20.30;99.90;;;;;;5054433;28;20497;-78
2021/07/15 06:46:27;;;;;;;5.80;2.43;;;20.30;99.90;;;;;;5061108;28;20460;-78
2021/07/15 06:48:55;;;;;;;2.73;2.40;;;20.50;99.90;;;;;;5063106;28;20445;-77
2021/07/15 06:51:22;;;;;;;2.30;2.10;;;20.70;99.90;;;;;;5062228;28;20457;-76
2021/07/15 06:53:49;;;;;;;2.30;2.10;;;20.90;99.90;;;;;;5053357;28;20504;-77
2021/07/15 06:56:16;;;;;;;3.27;2.23;;;21.00;99.90;;;;;;5056456;28;20473;-79
2021/07/15 06:58:42;;;;;;;4.43;2.60;;;21.00;99.90;;;;;;5056511;28;20446;-78
2021/07/15 07:01:09;;;;;;;2.33;1.80;;;21.20;99.90;;;;;;5061472;28;20858;-78
2021/07/15 07:03:36;;;;;;;2.77;1.90;;;21.10;99.90;;;;;;5057207;28;20489;-77
2021/07/15 07:06:04;;;;;;;2.43;2.27;;;20.90;99.90;;;;;;5057378;28;20441;-77
2021/07/15 07:08:31;;;;;;;2.20;2.10;;;20.90;99.90;;;;;;5055719;28;20556;-78
2021/07/15 07:10:58;;;;;;;2.20;2.07;;;20.80;99.90;;;;;;5057712;28;20449;-77
2021/07/15 07:13:24;;;;;;;2.87;2.00;;;21.00;99.90;;;;;;5054509;28;20493;-77
2021/07/15 07:15:51;;;;;;;4.90;1.90;;;21.00;99.90;;;;;;5054163;28;20951;-77
2021/07/15 07:18:17;;;;;;;2.30;1.87;;;21.00;99.90;;;;;;5054470;28;20453;-77
2021/07/15 07:20:44;;;;;;;2.20;2.10;;;21.10;99.90;;;;;;5054564;28;20545;-76
2021/07/15 07:23:14;;;;;;;2.43;2.10;;;21.20;99.90;;;;;;5054310;28;20517;-77
2021/07/15 07:25:40;;;;;;;4.30;2.23;;;21.40;99.90;;;;;;5054483;28;20453;-77
2021/07/15 07:28:07;;;;;;;2.00;1.90;;;21.40;99.90;;;;;;5054786;28;20473;-80
2021/07/15 07:30:34;;;;;;;2.00;1.73;;;21.40;99.90;;;;;;5055911;28;20477;-76
2021/07/15 07:33:01;;;;;;;2.00;1.90;;;21.40;99.90;;;;;;5059605;28;20448;-77
2021/07/15 07:35:27;;;;;;;4.30;1.83;;;21.70;99.90;;;;;;5059771;28;20465;-76
2021/07/15 07:37:54;;;;;;;2.33;2.13;;;21.60;99.90;;;;;;5058698;28;20441;-77
2021/07/15 07:40:22;;;;;;;2.80;1.47;;;21.70;99.90;;;;;;5054233;28;20477;-77
2021/07/15 07:42:49;;;;;;;2.10;2.00;;;21.70;99.90;;;;;;5054830;28;20512;-78
2021/07/15 07:45:16;;;;;;;2.30;2.00;;;21.60;99.90;;;;;;5054145;28;20497;-77
2021/07/15 07:47:44;;;;;;;2.53;2.00;;;21.80;99.90;;;;;;5053905;28;20484;-79
2021/07/15 07:50:12;;;;;;;2.20;2.10;;;21.80;99.90;;;;;;5054049;28;20959;-77
2021/07/15 07:52:39;;;;;;;2.57;2.37;;;21.70;99.90;;;;;;5054055;28;20456;-77
2021/07/15 07:55:08;;;;;;;4.83;3.30;;;21.70;99.90;;;;;;5057520;28;20552;-77
2021/07/15 07:57:37;;;;;;;3.83;2.93;;;21.80;99.90;;;;;;5065196;28;20450;-76
2021/07/15 08:00:06;;;;;;;2.17;1.97;;;21.70;99.90;;;;;;5062672;28;20446;-77
2021/07/15 08:02:33;;;;;;;2.50;2.30;;;22.00;99.90;;;;;;5057571;28;20480;-77
2021/07/15 08:05:03;;;;;;;3.00;2.27;;;21.90;99.90;;;;;;5057191;28;20505;-77
2021/07/15 08:07:29;;;;;;;2.50;2.27;;;22.00;99.90;;;;;;5057328;28;20548;-77
2021/07/15 08:09:56;;;;;;;2.30;2.10;;;21.90;99.90;;;;;;5057401;28;20449;-77
2021/07/15 08:12:23;;;;;;;1.77;1.67;;;21.90;99.90;;;;;;5057821;28;20873;-77
2021/07/15 08:14:50;;;;;;;2.33;2.13;;;21.80;99.90;;;;;;5056668;28;20515;-77
2021/07/15 08:17:17;;;;;;;2.53;1.87;;;22.00;99.90;;;;;;5059466;28;20864;-77
2021/07/15 08:19:44;;;;;;;2.23;2.10;;;22.00;99.90;;;;;;5057936;28;20473;-77
2021/07/15 08:22:10;;;;;;;2.50;2.40;;;22.00;99.90;;;;;;5056655;28;20514;-77
2021/07/15 08:24:37;;;;;;;1.80;1.70;;;22.20;99.90;;;;;;5057080;28;20492;-78
2021/07/15 08:27:04;;;;;;;2.60;2.30;;;22.20;99.90;;;;;;5057062;28;20571;-77
2021/07/15 08:29:38;;;;;;;1.80;1.70;;;22.10;99.90;;;;;;5057246;28;20481;-77
2021/07/15 08:32:07;;;;;;;3.73;2.40;;;22.10;99.90;;;;;;5060746;28;20473;-77
2021/07/15 08:34:34;;;;;;;2.77;2.57;;;22.30;99.90;;;;;;5063748;28;20462;-77
2021/07/15 08:37:02;;;;;;;2.63;2.43;;;22.40;99.90;;;;;;5061402;28;20469;-77
2021/07/15 08:39:29;;;;;;;2.63;2.23;;;22.40;99.90;;;;;;5058299;28;20442;-77
2021/07/15 08:41:58;;;;;;;2.23;2.00;;;22.60;99.90;;;;;;5056800;28;20515;-77
2021/07/15 08:44:24;;;;;;;2.50;2.30;;;22.60;99.90;;;;;;5056585;28;20481;-77
2021/07/15 08:46:51;;;;;;;3.47;3.17;;;22.70;99.90;;;;;;5057015;28;20477;-77
2021/07/15 08:49:21;;;;;;;2.40;2.20;;;22.60;99.90;;;;;;5057154;28;20448;-77
2021/07/15 08:51:48;;;;;;;5.60;2.43;;;22.70;99.90;;;;;;5056911;28;20815;-77
2021/07/15 08:54:17;;;;;;;3.00;2.07;;;22.70;99.90;;;;;;5056179;28;20587;-78
2021/07/15 08:56:44;;;;;;;3.27;2.60;;;22.80;99.90;;;;;;5055796;28;20460;-78
2021/07/15 08:59:13;;;;;;;3.90;2.93;;;22.70;99.90;;;;;;5055709;28;20453;-77
2021/07/15 09:01:41;;;;;;;5.87;5.27;;;22.70;99.90;;;;;;5055190;28;20503;-77
2021/07/15 09:04:10;;;;;;;5.07;2.80;;;22.80;99.90;;;;;;5055013;28;20870;-77
2021/07/15 09:06:41;;;;;;;2.20;2.00;;;22.90;99.90;;;;;;5054298;28;20457;-77
2021/07/15 09:09:09;;;;;;;3.00;2.70;;;22.80;99.90;;;;;;5055258;28;20430;-77
2021/07/15 09:11:37;;;;;;;4.00;3.60;;;22.80;99.90;;;;;;5057179;28;20457;-77
2021/07/15 09:14:12;;;;;;;2.33;2.10;;;22.90;99.90;;;;;;5056339;28;21000;-77
2021/07/15 09:16:46;;;;;;;3.90;2.43;;;22.90;99.90;;;;;;5057043;28;20458;-77
2021/07/15 09:19:14;;;;;;;1.87;1.77;;;23.00;99.90;;;;;;5056842;28;20876;-77
2021/07/15 09:21:43;;;;;;;4.50;2.20;;;23.00;99.90;;;;;;5057219;28;20488;-77
2021/07/15 09:24:29;;;;;;;4.90;2.10;;;23.20;99.90;;;;;;5057471;28;20590;-77
2021/07/15 09:26:56;;;;;;;3.10;2.80;;;23.20;99.90;;;;;;5059650;28;20422;-76
2021/07/15 09:29:23;;;;;;;3.37;2.20;;;23.30;99.90;;;;;;5056700;28;20447;-77
2021/07/15 09:31:55;;;;;;;3.73;2.00;;;23.50;99.90;;;;;;5057074;28;20445;-77
2021/07/15 09:34:23;;;;;;;2.70;2.50;;;23.50;99.90;;;;;;5056360;28;20470;-77
2021/07/15 09:36:53;;;;;;;2.97;2.33;;;23.50;99.90;;;;;;5057168;28;20503;-77
2021/07/15 09:39:21;;;;;;;2.40;2.30;;;23.60;99.90;;;;;;5055838;28;20442;-77
2021/07/15 09:42:08;;;;;;;3.20;2.53;;;23.80;99.90;;;;;;5055628;28;20474;-77
2021/07/15 09:44:36;;;;;;;3.17;2.50;;;23.90;99.90;;;;;;5055816;28;20487;-76
2021/07/15 09:47:03;;;;;;;2.77;2.57;;;23.90;99.90;;;;;;5055442;28;20958;-77
2021/07/15 09:49:31;;;;;;;3.00;2.60;;;24.00;99.90;;;;;;5056050;28;20476;-77
2021/07/15 09:51:59;;;;;;;2.30;2.20;;;24.00;99.90;;;;;;5055962;28;20485;-76
2021/07/15 09:54:27;;;;;;;6.20;2.87;;;24.00;99.90;;;;;;5055889;28;20477;-77
2021/07/15 09:56:53;;;;;;;2.63;2.43;;;24.00;99.90;;;;;;5055567;28;20446;-78
2021/07/15 09:59:20;;;;;;;2.67;2.47;;;24.20;99.90;;;;;;5057249;28;20817;-77
2021/07/15 10:01:48;;;;;;;2.63;2.43;;;24.10;99.90;;;;;;5062745;28;21007;-77
2021/07/15 10:04:22;;;;;;;3.20;2.90;;;24.10;99.90;;;;;;5061200;28;20546;-78
2021/07/15 10:06:50;;;;;;;3.17;2.97;;;24.10;99.90;;;;;;5057537;28;20922;-78
2021/07/15 10:09:22;;;;;;;2.83;2.63;;;24.20;99.90;;;;;;5055179;28;20502;-78
2021/07/15 10:11:49;;;;;;;2.43;2.20;;;24.10;99.90;;;;;;5057986;28;20501;-77
2021/07/15 10:14:17;;;;;;;2.90;2.70;;;24.10;99.90;;;;;;5054628;28;20546;-77
2021/07/15 10:16:46;;;;;;;3.60;2.87;;;24.30;99.90;;;;;;5054133;28;20518;-77
2021/07/15 10:19:18;;;;;;;13.03;10.43;;;25.00;99.90;;;;;;5054179;28;20444;-77
2021/07/15 10:21:45;;;;;;;3.90;3.17;;;24.40;99.90;;;;;;5054743;28;20474;-77
2021/07/15 10:24:20;;;;;;;4.63;4.03;;;24.40;99.90;;;;;;5054716;28;21059;-77
2021/07/15 10:26:50;;;;;;;2.93;2.60;;;24.40;99.90;;;;;;5059982;28;20424;-77
2021/07/15 10:29:19;;;;;;;3.87;3.57;;;24.30;99.90;;;;;;5062057;28;20440;-76
2021/07/15 10:31:48;;;;;;;3.73;3.43;;;24.10;99.90;;;;;;5055587;28;20485;-77
2021/07/15 10:34:15;;;;;;;3.13;2.90;;;24.20;99.90;;;;;;5062030;28;21002;-78
2021/07/15 10:36:42;;;;;;;6.20;2.90;;;24.30;99.90;;;;;;5058377;28;20456;-77
2021/07/15 10:39:13;;;;;;;3.13;2.93;;;24.40;99.90;;;;;;5055581;28;20505;-76
2021/07/15 10:41:42;;;;;;;4.23;3.10;;;24.20;99.90;;;;;;5054893;28;20437;-76
2021/07/15 10:44:10;;;;;;;6.67;3.40;;;24.50;99.90;;;;;;5054550;28;20579;-76
2021/07/15 10:46:38;;;;;;;3.30;2.90;;;24.50;99.90;;;;;;5055140;28;20451;-77
2021/07/15 10:49:08;;;;;;;3.60;3.10;;;24.50;99.90;;;;;;5055085;28;20452;-77
2021/07/15 10:51:35;;;;;;;4.43;3.00;;;24.60;99.90;;;;;;5062582;28;20498;-77
2021/07/15 10:54:03;;;;;;;4.57;4.17;;;24.60;99.90;;;;;;5062023;28;20766;-77
2021/07/15 10:56:29;;;;;;;3.63;3.27;;;24.70;99.90;;;;;;5061740;28;20484;-77
2021/07/15 10:58:56;;;;;;;4.00;3.67;;;24.60;99.90;;;;;;5062410;28;20452;-77
2021/07/15 11:01:43;;;;;;;4.33;2.77;;;24.70;99.90;;;;;;5061891;28;20441;-77
2021/07/15 11:04:11;;;;;;;4.33;3.93;;;24.80;99.90;;;;;;5058583;28;20497;-77
2021/07/15 11:06:40;;;;;;;3.93;3.50;;;24.70;99.90;;;;;;5060165;28;20460;-77
2021/07/15 11:09:10;;;;;;;5.23;4.73;;;25.00;99.90;;;;;;5062405;28;20448;-77
2021/07/15 11:11:39;;;;;;;3.80;3.50;;;25.00;99.90;;;;;;5058415;28;20447;-77
2021/07/15 11:14:07;;;;;;;3.17;2.97;;;24.90;99.90;;;;;;5054446;28;20472;-76
2021/07/15 11:16:52;;;;;;;3.23;3.03;;;24.90;99.90;;;;;;5054445;28;20514;-77
2021/07/15 11:19:56;;;;;;;2.93;2.73;;;25.00;99.90;;;;;;5053202;28;20449;-77
2021/07/15 11:22:38;;;;;;;2.73;2.53;;;25.00;99.90;;;;;;5052456;28;21013;-77
2021/07/15 11:25:08;;;;;;;3.30;3.10;;;25.10;99.90;;;;;;5052442;28;20485;-77
2021/07/15 11:27:41;;;;;;;3.20;2.90;;;25.20;99.90;;;;;;5052580;28;20521;-77
2021/07/15 11:30:11;;;;;;;3.70;3.40;;;25.20;99.90;;;;;;5056878;28;20431;-77
2021/07/15 11:32:39;;;;;;;2.90;2.70;;;25.20;99.90;;;;;;5058037;28;20602;-76
2021/07/15 11:35:27;;;;;;;3.33;3.03;;;25.20;99.90;;;;;;5057441;28;20515;-77
2021/07/15 11:38:09;;;;;;;3.73;3.53;;;25.20;99.90;;;;;;5057754;28;20453;-77
2021/07/15 11:40:48;;;;;;;3.20;2.90;;;25.30;99.90;;;;;;5058205;28;20437;-77
2021/07/15 11:43:21;;;;;;;4.20;3.77;;;25.40;99.90;;;;;;5057778;28;20428;-77
2021/07/15 11:46:05;;;;;;;4.90;3.37;;;25.10;99.90;;;;;;5057523;28;20448;-77
2021/07/15 11:49:05;;;;;;;3.50;3.30;;;25.30;99.90;;;;;;5057651;28;20481;-77
2021/07/15 11:51:36;;;;;;;3.17;2.97;;;25.40;99.90;;;;;;5058392;28;20851;-77
2021/07/15 11:54:22;;;;;;;4.37;3.83;;;25.50;99.90;;;;;;5061142;28;20469;-78
2021/07/15 11:56:51;;;;;;;3.40;3.20;;;25.60;99.90;;;;;;5058495;28;20487;-77
2021/07/15 11:59:48;;;;;;;5.70;3.20;;;25.60;99.90;;;;;;5057198;28;20866;-77
2021/07/15 12:02:25;;;;;;;3.60;3.30;;;25.70;99.90;;;;;;4976556;28;20506;-78
2021/07/15 12:05:14;;;;;;;4.00;3.57;;;25.70;99.90;;;;;;5045768;28;20489;-78
2021/07/15 12:07:45;;;;;;;3.70;3.40;;;25.90;99.90;;;;;;5058508;28;20434;-78
2021/07/15 12:10:13;;;;;;;3.43;3.10;;;26.10;99.90;;;;;;5059239;28;20429;-78
2021/07/15 12:12:41;;;;;;;3.50;3.30;;;26.20;99.90;;;;;;5058294;28;20485;-78
2021/07/15 12:15:16;;;;;;;5.20;2.97;;;26.40;99.90;;;;;;5060475;28;20473;-78
2021/07/15 12:17:46;;;;;;;5.50;3.77;;;26.00;99.90;;;;;;5057252;28;20434;-77
2021/07/15 12:20:14;;;;;;;3.50;3.20;;;26.10;99.90;;;;;;5057406;28;20445;-77
2021/07/15 12:22:59;;;;;;;3.67;3.37;;;26.00;99.90;;;;;;5064580;28;20481;-76
2021/07/15 12:25:27;;;;;;;3.53;3.33;;;25.90;99.90;;;;;;5059008;28;20469;-78
2021/07/15 12:27:57;;;;;;;4.13;3.73;;;25.90;99.90;;;;;;5061982;28;20442;-77
2021/07/15 12:30:40;;;;;;;4.10;3.80;;;25.90;99.90;;;;;;5063072;28;20472;-77
2021/07/15 12:33:07;;;;;;;4.20;3.67;;;25.80;99.90;;;;;;5062979;28;20900;-77
2021/07/15 12:35:36;;;;;;;3.83;3.63;;;25.60;99.90;;;;;;5064002;28;20485;-77
2021/07/15 12:38:17;;;;;;;7.40;3.50;;;25.80;99.90;;;;;;5060416;28;20492;-78
2021/07/15 12:40:44;;;;;;;4.20;3.90;;;25.70;99.90;;;;;;5057817;28;20460;-78
2021/07/15 12:43:12;;;;;;;4.30;3.90;;;25.70;99.90;;;;;;5057106;28;20453;-78
2021/07/15 12:45:39;;;;;;;4.63;4.03;;;26.00;99.90;;;;;;5056455;28;21049;-78
2021/07/15 12:48:07;;;;;;;3.93;3.57;;;26.10;99.90;;;;;;5057051;28;20466;-77
2021/07/15 12:50:36;;;;;;;4.20;3.80;;;26.20;99.90;;;;;;5057081;28;20445;-76
2021/07/15 12:53:11;;;;;;;3.90;3.60;;;26.20;99.90;;;;;;5056259;28;20453;-76
2021/07/15 12:55:39;;;;;;;6.73;4.47;;;26.10;99.90;;;;;;5058854;28;20477;-75
2021/07/15 12:58:06;;;;;;;4.10;3.80;;;26.30;99.90;;;;;;5063157;28;20442;-76